createdAt,value
2018-07-13T00:00:34.429Z,99.90
2018-07-13T00:03:03.547Z,99.90
2018-07-13T00:05:32.672Z,99.90
2018-07-13T00:08:01.868Z,99.90
2018-07-13T00:10:31.068Z,99.90
2018-07-13T00:13:00.434Z,99.90
2018-07-13T00:15:29.762Z,99.90
2018-07-13T00:17:59.107Z,99.90
2018-07-13T00:20:28.131Z,99.90
2018-07-13T00:22:57.396Z,99.90
2018-07-13T00:25:26.943Z,99.90
2018-07-13T00:27:56.184Z,99.90
2018-07-13T00:30:25.357Z,99.90
2018-07-13T00:32:54.637Z,99.90
2018-07-13T00:35:23.716Z,99.90
2018-07-13T00:37:52.968Z,99.90
2018-07-13T00:40:22.136Z,99.90
2018-07-13T00:42:51.351Z,99.90
2018-07-13T00:45:20.660Z,99.90
2018-07-13T00:47:49.844Z,99.90
2018-07-13T00:50:19.039Z,99.90
2018-07-13T00:52:48.427Z,99.90
2018-07-13T00:55:17.483Z,99.90
2018-07-13T00:57:46.631Z,99.90
2018-07-13T01:00:18.104Z,99.90
2018-07-13T01:02:47.234Z,99.90
2018-07-13T01:05:16.659Z,99.90
2018-07-13T01:07:46.105Z,99.90
2018-07-13T01:10:15.140Z,99.90
2018-07-13T01:12:44.377Z,99.90
2018-07-13T01:15:13.673Z,99.90
2018-07-13T01:17:42.832Z,99.90
2018-07-13T01:20:12.126Z,99.90
2018-07-13T01:22:41.361Z,99.90
2018-07-13T01:25:10.669Z,99.90
2018-07-13T01:27:39.984Z,99.90
2018-07-13T01:32:37.753Z,99.90
2018-07-13T01:35:06.904Z,99.90
2018-07-13T01:37:36.177Z,99.90
2018-07-13T01:40:05.413Z,99.90
2018-07-13T01:42:34.741Z,99.90
2018-07-13T01:45:04.128Z,99.90
2018-07-13T01:47:33.286Z,99.90
2018-07-13T01:50:02.597Z,99.90
2018-07-13T01:52:31.990Z,99.90
2018-07-13T01:55:01.082Z,99.90
2018-07-13T01:57:30.334Z,99.90
2018-07-13T01:59:59.509Z,99.90
2018-07-13T02:02:28.746Z,99.90
2018-07-13T02:04:58.114Z,99.90
2018-07-13T02:07:27.358Z,99.90
2018-07-13T02:09:57.110Z,99.90
2018-07-13T02:12:26.210Z,99.90
2018-07-13T02:14:55.570Z,99.90
2018-07-13T02:17:24.930Z,99.90
2018-07-13T02:19:54.174Z,99.90
2018-07-13T02:22:23.483Z,99.90
2018-07-13T02:24:52.684Z,99.90
2018-07-13T02:27:21.926Z,99.90
2018-07-13T02:29:51.110Z,99.90
2018-07-13T02:32:20.403Z,99.90
2018-07-13T02:34:49.458Z,99.90
2018-07-13T02:37:18.954Z,99.90
2018-07-13T02:39:48.072Z,99.90
2018-07-13T02:42:17.274Z,99.90
2018-07-13T02:44:46.513Z,99.90
2018-07-13T02:47:15.720Z,99.90
2018-07-13T02:49:45.666Z,99.90
2018-07-13T02:52:14.690Z,99.90
2018-07-13T02:54:44.024Z,99.90
2018-07-13T02:57:13.514Z,99.90
2018-07-13T02:59:42.854Z,99.90
2018-07-13T03:02:12.092Z,99.90
2018-07-13T03:04:41.627Z,99.90
2018-07-13T03:07:10.970Z,99.90
2018-07-13T03:09:40.269Z,99.90
2018-07-13T03:12:09.400Z,99.90
2018-07-13T03:14:38.549Z,99.90
2018-07-13T03:17:07.912Z,99.90
2018-07-13T03:19:36.910Z,99.90
2018-07-13T03:22:06.462Z,99.90
2018-07-13T03:24:35.506Z,99.90
2018-07-13T03:27:04.754Z,99.90
2018-07-13T03:29:33.922Z,99.90
2018-07-13T03:32:03.326Z,99.90
2018-07-13T03:34:32.599Z,99.90
2018-07-13T03:37:01.870Z,99.90
2018-07-13T03:39:31.613Z,99.90
2018-07-13T03:42:01.290Z,99.90
2018-07-13T03:44:30.522Z,99.90
2018-07-13T03:46:59.761Z,99.90
2018-07-13T03:49:29.041Z,99.90
2018-07-13T03:51:58.326Z,99.90
2018-07-13T03:56:56.534Z,99.90
2018-07-13T03:59:25.726Z,99.90
2018-07-13T04:01:54.975Z,99.90
2018-07-13T04:04:24.370Z,99.90
2018-07-13T04:06:53.749Z,99.90
2018-07-13T04:09:23.089Z,99.90
2018-07-13T04:11:52.357Z,99.90
2018-07-13T04:14:21.853Z,99.90
2018-07-13T04:16:51.308Z,99.90
2018-07-13T04:21:49.333Z,99.90
2018-07-13T04:24:18.436Z,99.90
2018-07-13T04:26:48.610Z,99.90
2018-07-13T04:29:17.854Z,99.90
2018-07-13T04:31:47.514Z,99.90
2018-07-13T04:34:16.889Z,99.90
2018-07-13T04:36:45.886Z,99.90
2018-07-13T04:39:15.083Z,99.90
2018-07-13T04:41:44.522Z,99.90
2018-07-13T04:44:13.801Z,99.90
2018-07-13T04:46:42.959Z,99.90
2018-07-13T04:49:12.472Z,99.90
2018-07-13T04:51:41.912Z,99.90
2018-07-13T04:56:39.777Z,99.90
2018-07-13T04:59:08.993Z,99.90
2018-07-13T05:01:38.180Z,99.90
2018-07-13T05:04:07.846Z,99.90
2018-07-13T05:06:36.793Z,99.90
2018-07-13T05:09:07.610Z,99.90
2018-07-13T05:11:37.045Z,99.90
2018-07-13T05:14:06.217Z,99.90
2018-07-13T05:16:35.592Z,99.90
2018-07-13T05:19:04.670Z,99.90
2018-07-13T05:21:34.305Z,99.90
2018-07-13T05:26:32.373Z,99.90
2018-07-13T05:29:01.642Z,99.90
2018-07-13T05:31:31.020Z,99.90
2018-07-13T05:34:00.278Z,99.90
2018-07-13T05:36:30.186Z,99.90
2018-07-13T05:38:59.309Z,99.90
2018-07-13T05:41:28.600Z,99.90
2018-07-13T05:43:57.718Z,99.90
2018-07-13T05:46:27.008Z,99.90
2018-07-13T05:48:56.178Z,99.90
2018-07-13T05:51:25.355Z,99.90
2018-07-13T05:53:54.625Z,99.90
2018-07-13T05:56:24.064Z,99.90
2018-07-13T05:58:53.599Z,99.90
2018-07-13T06:01:23.022Z,99.90
2018-07-13T06:03:52.431Z,99.90
2018-07-13T06:06:21.563Z,99.90
2018-07-13T06:08:51.314Z,99.90
2018-07-13T06:11:20.649Z,99.90
2018-07-13T06:13:50.358Z,99.90
2018-07-13T06:16:19.554Z,99.90
2018-07-13T06:18:48.671Z,99.90
2018-07-13T06:21:17.971Z,99.90
2018-07-13T06:23:47.225Z,99.90
2018-07-13T06:26:16.587Z,99.90
2018-07-13T06:28:45.980Z,99.90
2018-07-13T06:31:15.305Z,99.90
2018-07-13T06:33:44.539Z,99.90
2018-07-13T06:36:13.734Z,99.90
2018-07-13T06:38:42.882Z,99.90
2018-07-13T06:41:12.326Z,99.90
2018-07-13T06:43:41.470Z,99.90
2018-07-13T06:46:10.772Z,99.90
2018-07-13T06:48:39.950Z,99.90
2018-07-13T06:51:09.371Z,99.90
2018-07-13T06:53:38.482Z,99.90
2018-07-13T06:56:08.103Z,99.90
2018-07-13T06:58:48.560Z,99.90
2018-07-13T07:01:17.733Z,99.90
2018-07-13T07:04:53.350Z,99.90
2018-07-13T07:07:24.170Z,99.90
2018-07-13T07:09:56.010Z,99.90
2018-07-13T07:14:32.359Z,99.90
2018-07-13T07:17:02.223Z,99.90
2018-07-13T07:19:31.737Z,99.90
2018-07-13T07:22:00.891Z,99.90
2018-07-13T07:24:30.645Z,99.90
2018-07-13T07:26:59.979Z,99.90
2018-07-13T07:29:29.204Z,99.90
2018-07-13T07:34:27.589Z,99.90
2018-07-13T07:36:57.133Z,99.90
2018-07-13T07:39:26.767Z,99.90
2018-07-13T07:41:56.405Z,99.90
2018-07-13T07:44:25.483Z,99.90
2018-07-13T07:46:54.828Z,99.90
2018-07-13T07:49:23.886Z,99.90
2018-07-13T07:51:53.526Z,99.90
2018-07-13T07:54:22.857Z,99.90
2018-07-13T07:56:52.443Z,99.90
2018-07-13T07:59:21.519Z,99.90
2018-07-13T08:01:51.556Z,99.90
2018-07-13T08:06:49.468Z,99.90
2018-07-13T08:09:18.279Z,99.90
2018-07-13T08:11:47.396Z,99.90
2018-07-13T08:14:16.764Z,99.90
2018-07-13T08:16:45.827Z,99.90
2018-07-13T08:19:15.092Z,99.90
2018-07-13T08:21:45.219Z,99.90
2018-07-13T08:24:21.787Z,99.90
2018-07-13T08:29:25.446Z,99.90
2018-07-13T08:31:54.838Z,99.90
2018-07-13T08:34:24.285Z,99.90
2018-07-13T08:36:53.908Z,99.90
2018-07-13T08:39:22.985Z,99.90
2018-07-13T08:41:52.619Z,99.90
2018-07-13T08:44:21.951Z,99.90
2018-07-13T08:46:51.339Z,99.90
2018-07-13T08:49:20.523Z,99.90
2018-07-13T08:51:49.905Z,99.90
2018-07-13T08:54:19.009Z,99.90
2018-07-13T08:56:48.389Z,99.90
2018-07-13T08:59:17.458Z,99.90
2018-07-13T09:01:46.757Z,99.90
2018-07-13T09:04:16.030Z,99.90
2018-07-13T09:06:45.032Z,99.90
2018-07-13T09:09:16.439Z,99.90
2018-07-13T09:11:45.783Z,99.90
2018-07-13T09:14:15.239Z,99.90
2018-07-13T09:16:44.484Z,99.90
2018-07-13T09:19:13.609Z,99.90
2018-07-13T09:21:42.863Z,99.90
2018-07-13T09:24:12.100Z,99.90
2018-07-13T09:26:41.444Z,99.90
2018-07-13T09:29:10.588Z,99.90
2018-07-13T09:31:39.718Z,99.90
2018-07-13T09:34:09.342Z,99.90
2018-07-13T09:36:38.827Z,99.90
2018-07-13T09:39:08.625Z,99.90
2018-07-13T09:41:37.952Z,99.90
2018-07-13T09:44:07.012Z,99.90
2018-07-13T09:46:36.353Z,99.90
2018-07-13T09:49:05.999Z,99.90
2018-07-13T09:51:35.514Z,99.90
2018-07-13T09:54:04.920Z,99.90
2018-07-13T09:56:34.455Z,99.90
2018-07-13T09:59:03.611Z,99.90
2018-07-13T10:01:32.888Z,99.90
2018-07-13T10:04:02.093Z,99.90
2018-07-13T10:06:31.467Z,99.90
2018-07-13T10:09:00.844Z,99.90
2018-07-13T10:11:30.252Z,99.90
2018-07-13T10:13:59.586Z,99.90
2018-07-13T10:16:29.154Z,99.90
2018-07-13T10:18:58.478Z,99.90
2018-07-13T10:21:28.775Z,99.90
2018-07-13T10:23:58.467Z,99.90
2018-07-13T10:26:29.218Z,99.90
2018-07-13T10:28:58.350Z,99.90
2018-07-13T10:31:31.710Z,99.90
2018-07-13T10:34:01.098Z,99.90
2018-07-13T10:36:32.028Z,99.90
2018-07-13T10:39:02.030Z,99.90
2018-07-13T10:41:31.256Z,99.90
2018-07-13T10:44:00.650Z,99.90
2018-07-13T10:46:29.902Z,99.90
2018-07-13T10:48:59.228Z,99.90
2018-07-13T10:51:30.066Z,99.90
2018-07-13T10:53:59.492Z,99.90
2018-07-13T10:56:28.742Z,99.90
2018-07-13T10:58:58.027Z,99.90
2018-07-13T11:01:27.261Z,99.90
2018-07-13T11:03:56.657Z,99.90
2018-07-13T11:06:25.914Z,99.90
2018-07-13T11:08:55.038Z,99.90
2018-07-13T11:11:24.298Z,99.90
2018-07-13T11:13:53.671Z,99.90
2018-07-13T11:16:23.087Z,99.90
2018-07-13T11:18:52.139Z,99.90
2018-07-13T11:21:21.542Z,99.90
2018-07-13T11:23:50.624Z,99.90
2018-07-13T11:26:20.128Z,99.90
2018-07-13T11:28:49.650Z,99.20
2018-07-13T11:31:19.295Z,99.90
2018-07-13T11:33:48.776Z,99.90
2018-07-13T11:36:18.285Z,96.90
2018-07-13T11:38:47.622Z,90.80
2018-07-13T11:41:17.339Z,94.50
2018-07-13T11:43:46.701Z,94.10
2018-07-13T11:46:16.321Z,94.30
2018-07-13T11:51:14.249Z,95.00
2018-07-13T11:53:43.596Z,96.30
2018-07-13T11:56:13.035Z,97.20
2018-07-13T11:58:42.230Z,93.40
2018-07-13T12:01:11.893Z,93.50
2018-07-13T12:03:41.255Z,91.50
2018-07-13T12:06:10.410Z,97.50
2018-07-13T12:08:39.751Z,94.60
2018-07-13T12:11:08.947Z,91.90
2018-07-13T12:13:38.065Z,94.50
2018-07-13T12:16:07.621Z,88.50
2018-07-13T12:18:36.785Z,90.40
2018-07-13T12:21:05.968Z,89.10
2018-07-13T12:23:35.420Z,83.00
2018-07-13T12:26:04.673Z,85.80
2018-07-13T12:28:33.865Z,85.70
2018-07-13T12:31:03.180Z,94.40
2018-07-13T12:33:32.262Z,90.10
2018-07-13T12:36:01.719Z,90.00
2018-07-13T12:38:31.007Z,85.80
2018-07-13T12:41:00.554Z,79.30
2018-07-13T12:43:29.751Z,82.50
2018-07-13T12:45:59.071Z,90.90
2018-07-13T12:48:28.159Z,87.30
2018-07-13T12:50:57.353Z,86.60
2018-07-13T12:53:26.548Z,91.80
2018-07-13T12:55:55.708Z,90.50
2018-07-13T12:58:25.031Z,87.90
2018-07-13T13:00:54.110Z,92.60
2018-07-13T13:03:23.346Z,90.30
2018-07-13T13:05:52.556Z,90.50
2018-07-13T13:08:21.978Z,89.30
2018-07-13T13:10:51.116Z,89.40
2018-07-13T13:13:20.885Z,92.10
2018-07-13T13:15:50.269Z,92.40
2018-07-13T13:18:20.637Z,94.70
2018-07-13T13:20:49.888Z,93.90
2018-07-13T13:23:19.517Z,94.80
2018-07-13T13:25:49.686Z,92.70
2018-07-13T13:28:19.380Z,91.00
2018-07-13T13:30:48.794Z,93.50
2018-07-13T13:33:18.080Z,90.30
2018-07-13T13:35:47.188Z,93.70
2018-07-13T13:38:16.725Z,91.30
2018-07-13T13:40:45.964Z,91.20
2018-07-13T13:43:15.279Z,92.30
2018-07-13T13:45:44.576Z,91.40
2018-07-13T13:48:13.735Z,91.50
2018-07-13T13:50:43.053Z,94.10
2018-07-13T13:53:12.295Z,90.80
2018-07-13T13:55:42.430Z,93.30
2018-07-13T13:58:11.964Z,93.90
2018-07-13T14:00:41.489Z,91.10
2018-07-13T14:03:10.944Z,93.70
2018-07-13T14:05:40.036Z,92.90
2018-07-13T14:08:09.531Z,93.40
2018-07-13T14:10:38.631Z,91.30
2018-07-13T14:13:08.043Z,93.70
2018-07-13T14:15:37.215Z,94.60
2018-07-13T14:18:06.745Z,92.70
2018-07-13T14:20:36.032Z,91.90
2018-07-13T14:23:05.260Z,92.80
2018-07-13T14:25:34.593Z,93.60
2018-07-13T14:28:03.686Z,93.50
2018-07-13T14:30:32.941Z,92.00
2018-07-13T14:33:02.182Z,93.10
2018-07-13T14:35:31.961Z,92.60
2018-07-13T14:38:01.178Z,94.40
2018-07-13T14:40:30.233Z,94.40
2018-07-13T14:42:59.467Z,96.20
2018-07-13T14:45:28.616Z,97.00
2018-07-13T14:47:58.171Z,97.80
2018-07-13T14:50:27.583Z,98.70
2018-07-13T14:52:57.036Z,99.00
2018-07-13T14:55:26.541Z,97.20
2018-07-13T14:57:55.952Z,95.80
2018-07-13T15:00:25.775Z,96.60
2018-07-13T15:02:55.310Z,95.10
2018-07-13T15:05:24.639Z,95.20
2018-07-13T15:07:54.544Z,94.60
2018-07-13T15:10:24.098Z,95.30
2018-07-13T15:12:53.565Z,94.90
2018-07-13T15:15:22.620Z,96.90
2018-07-13T15:17:52.302Z,94.60
2018-07-13T15:20:21.662Z,93.00
2018-07-13T15:22:50.901Z,94.20
2018-07-13T15:25:20.345Z,94.10
2018-07-13T15:27:50.413Z,94.00
2018-07-13T15:30:21.243Z,95.00
2018-07-13T15:32:51.342Z,94.20
2018-07-13T15:35:20.730Z,94.40
2018-07-13T15:37:50.072Z,95.90
2018-07-13T15:40:19.416Z,94.30
2018-07-13T15:42:49.531Z,95.20
2018-07-13T15:45:19.172Z,96.80
2018-07-13T15:47:48.577Z,98.40
2018-07-13T15:50:19.107Z,97.20
2018-07-13T15:52:49.566Z,97.90
2018-07-13T15:55:19.124Z,97.50
2018-07-13T15:57:48.886Z,98.40
2018-07-13T16:00:18.077Z,98.90
2018-07-13T16:02:47.507Z,98.70
2018-07-13T16:05:16.731Z,98.40
2018-07-13T16:07:45.840Z,98.80
2018-07-13T16:10:15.088Z,99.50
2018-07-13T16:12:44.256Z,99.90
2018-07-13T16:15:13.680Z,99.90
2018-07-13T16:17:43.328Z,99.90
2018-07-13T16:20:12.511Z,99.90
2018-07-13T16:22:42.080Z,99.90
2018-07-13T16:25:11.592Z,99.90
2018-07-13T16:27:41.166Z,99.90
2018-07-13T16:30:10.639Z,99.90
2018-07-13T16:32:40.423Z,99.90
2018-07-13T16:35:09.582Z,99.90
2018-07-13T16:37:39.295Z,99.90
2018-07-13T16:42:37.396Z,99.90
2018-07-13T16:45:06.642Z,99.90
2018-07-13T16:47:36.090Z,99.90
2018-07-13T16:50:05.349Z,99.90
2018-07-13T16:52:34.549Z,99.90
2018-07-13T16:55:03.592Z,99.90
2018-07-13T16:57:32.892Z,99.90
2018-07-13T17:00:02.224Z,99.90
2018-07-13T17:02:31.788Z,99.90
2018-07-13T17:05:01.130Z,99.90
2018-07-13T17:07:30.426Z,99.90
2018-07-13T17:10:00.039Z,99.90
2018-07-13T17:12:29.312Z,99.90
2018-07-13T17:15:01.881Z,99.90
2018-07-13T17:17:34.390Z,99.90
2018-07-13T17:20:03.805Z,99.90
2018-07-13T17:22:32.890Z,99.90
2018-07-13T17:25:02.196Z,99.90
2018-07-13T17:27:31.512Z,99.90
2018-07-13T17:30:00.625Z,99.90
2018-07-13T17:32:30.529Z,99.90
2018-07-13T17:35:00.503Z,99.90
2018-07-13T17:37:29.725Z,99.90
2018-07-13T17:39:58.972Z,99.90
2018-07-13T17:42:28.756Z,99.90
2018-07-13T17:44:59.605Z,99.90
2018-07-13T17:47:28.984Z,99.90
2018-07-13T17:49:58.076Z,99.90
2018-07-13T17:52:27.381Z,99.90
2018-07-13T17:54:56.381Z,99.90
2018-07-13T17:57:26.039Z,99.90
2018-07-13T17:59:55.413Z,99.90
2018-07-13T18:02:24.551Z,99.90
2018-07-13T18:04:53.710Z,99.90
2018-07-13T18:07:23.201Z,99.90
2018-07-13T18:09:52.388Z,99.90
2018-07-13T18:12:21.558Z,99.90
2018-07-13T18:14:50.810Z,99.90
2018-07-13T18:17:20.307Z,99.90
2018-07-13T18:19:49.587Z,99.90
2018-07-13T18:22:19.121Z,99.90
2018-07-13T18:24:48.407Z,99.90
2018-07-13T18:27:17.878Z,99.90
2018-07-13T18:29:47.097Z,99.90
2018-07-13T18:32:16.304Z,99.90
2018-07-13T18:34:46.157Z,99.90
2018-07-13T18:37:15.597Z,99.90
2018-07-13T18:39:45.043Z,99.90
2018-07-13T18:42:14.365Z,99.90
2018-07-13T18:44:44.151Z,99.90
2018-07-13T18:47:13.634Z,99.90
2018-07-13T18:49:42.749Z,99.90
2018-07-13T18:52:12.138Z,99.90
2018-07-13T18:54:41.325Z,99.90
2018-07-13T18:57:11.265Z,99.90
2018-07-13T18:59:40.403Z,99.90
2018-07-13T19:02:09.823Z,99.90
2018-07-13T19:04:39.241Z,99.90
2018-07-13T19:07:09.035Z,99.90
2018-07-13T19:09:38.287Z,99.90
2018-07-13T19:12:09.908Z,99.90
2018-07-13T19:14:41.251Z,99.90
2018-07-13T19:17:12.303Z,99.90
2018-07-13T19:19:43.122Z,99.90
2018-07-13T19:22:13.587Z,99.90
2018-07-13T19:24:45.173Z,99.90
2018-07-13T19:27:14.702Z,99.90
2018-07-13T19:29:44.073Z,99.90
2018-07-13T19:32:13.959Z,99.90
2018-07-13T19:34:43.529Z,99.90
2018-07-13T19:37:13.040Z,99.90
2018-07-13T19:39:42.255Z,99.90
2018-07-13T19:42:11.601Z,99.90
2018-07-13T19:44:41.043Z,99.90
2018-07-13T19:47:10.382Z,99.90
2018-07-13T19:49:39.659Z,99.90
2018-07-13T19:52:09.262Z,99.90
2018-07-13T19:54:38.968Z,99.90
2018-07-13T19:57:08.446Z,99.90
2018-07-13T19:59:37.734Z,99.90
2018-07-13T20:02:07.082Z,99.90
2018-07-13T20:04:36.595Z,99.90
2018-07-13T20:07:05.962Z,99.90
2018-07-13T20:09:35.208Z,99.90
2018-07-13T20:12:04.188Z,99.90
2018-07-13T20:14:33.556Z,99.90
2018-07-13T20:17:03.100Z,99.90
2018-07-13T20:19:32.980Z,99.90
2018-07-13T20:22:02.108Z,99.90
2018-07-13T20:24:31.263Z,99.90
2018-07-13T20:27:00.422Z,99.90
2018-07-13T20:29:29.781Z,99.90
2018-07-13T20:31:59.174Z,99.90
2018-07-13T20:34:28.371Z,99.90
2018-07-13T20:36:57.937Z,99.90
2018-07-13T20:39:27.223Z,99.90
2018-07-13T20:41:56.728Z,99.90
2018-07-13T20:44:26.222Z,99.90
2018-07-13T20:46:55.586Z,99.90
2018-07-13T20:49:25.207Z,99.90
2018-07-13T20:51:54.598Z,99.90
2018-07-13T20:54:24.051Z,99.90
2018-07-13T20:56:53.911Z,99.90
2018-07-13T20:59:23.005Z,99.90
2018-07-13T21:01:52.091Z,99.90
2018-07-13T21:04:21.625Z,99.90
2018-07-13T21:06:51.868Z,99.90
2018-07-13T21:09:21.340Z,99.90
2018-07-13T21:11:50.704Z,99.90
2018-07-13T21:14:20.054Z,99.90
2018-07-13T21:16:50.555Z,99.90
2018-07-13T21:19:19.967Z,99.90
2018-07-13T21:21:49.423Z,99.90
2018-07-13T21:24:18.635Z,99.90
2018-07-13T21:26:48.258Z,99.90
2018-07-13T21:29:17.291Z,99.90
2018-07-13T21:31:46.760Z,99.90
2018-07-13T21:34:16.202Z,99.90
2018-07-13T21:36:45.668Z,99.90
2018-07-13T21:39:14.945Z,99.90
2018-07-13T21:41:44.158Z,99.90
2018-07-13T21:44:13.372Z,99.90
2018-07-13T21:46:43.223Z,99.90
2018-07-13T21:49:12.608Z,99.90
2018-07-13T21:51:42.170Z,99.90
2018-07-13T21:54:12.329Z,99.90
2018-07-13T21:56:42.093Z,99.90
2018-07-13T21:59:11.099Z,99.90
2018-07-13T22:01:40.477Z,99.90
2018-07-13T22:04:09.540Z,99.90
2018-07-13T22:06:39.361Z,99.90
2018-07-13T22:09:08.681Z,99.90
2018-07-13T22:11:37.828Z,99.90
2018-07-13T22:14:07.142Z,99.90
2018-07-13T22:16:36.328Z,99.90
2018-07-13T22:19:05.749Z,99.90
2018-07-13T22:21:35.106Z,99.90
2018-07-13T22:24:04.529Z,99.90
2018-07-13T22:26:33.930Z,99.90
2018-07-13T22:29:03.240Z,99.90
2018-07-13T22:31:32.408Z,99.90
2018-07-13T22:34:01.680Z,99.90
2018-07-13T22:36:31.282Z,99.90
2018-07-13T22:39:00.383Z,99.90
2018-07-13T22:41:29.592Z,99.90
2018-07-13T22:43:59.105Z,99.90
2018-07-13T22:46:28.351Z,99.90
2018-07-13T22:48:57.675Z,99.90
2018-07-13T22:51:26.792Z,99.90
2018-07-13T22:53:55.896Z,99.90
2018-07-13T22:56:25.163Z,99.90
2018-07-13T22:58:54.275Z,99.90
2018-07-13T23:01:23.527Z,99.90
2018-07-13T23:03:52.810Z,99.90
2018-07-13T23:06:22.315Z,99.90
2018-07-13T23:08:51.477Z,99.90
2018-07-13T23:11:20.966Z,99.90
2018-07-13T23:13:50.620Z,99.90
2018-07-13T23:16:19.799Z,99.90
2018-07-13T23:18:49.070Z,99.90
2018-07-13T23:21:18.344Z,99.90
2018-07-13T23:23:47.685Z,99.90
2018-07-13T23:26:18.136Z,99.90
2018-07-13T23:28:47.659Z,99.90
2018-07-13T23:31:16.749Z,99.90
2018-07-13T23:33:46.343Z,99.90
2018-07-13T23:36:15.763Z,99.90
2018-07-13T23:38:45.269Z,99.90
2018-07-13T23:41:14.508Z,99.90
2018-07-13T23:43:43.652Z,99.90
2018-07-13T23:46:13.381Z,99.90
2018-07-13T23:51:11.351Z,99.90
2018-07-13T23:53:40.851Z,99.90
2018-07-13T23:56:10.037Z,99.90
2018-07-13T23:58:39.290Z,99.90
